METAR (acronimo di METeorological Air Report) è un messaggio meteo emesso nella maggior parte dei casi in ambito aeroportuale

YSSY - Sydney, Australia
Ultimo Aggiornamento: Lunedì 03 Agosto 2020 20:00 CEST
Sereno
Sereno
 Wind from Ovest-Nord-Ovest
Vento: Ovest-Nord-Ovest 13 km/h
Temperatura: 11°C
Punto di Rugiada: 5°C
Umidità: 67%
Barometro: 1012 hPa
Condizioni: Sereno
Visibilità: superiore a 10 km
2020/08/03 18:00 YSSY 031800Z 30007KT CAVOK 11/05 Q1012 NOSIG
YMML - Melbourne, Australia
Ultimo Aggiornamento: Lunedì 03 Agosto 2020 20:00 CEST
Prevalentemente Nuvoloso
Prevalentemente Nuvoloso
 Wind from Ovest
Vento: Ovest 22 km/h
Temperatura: 5°C
Wind Chill: 1°C
Punto di Rugiada: 3°C
Umidità: 87%
Barometro: 1012 hPa
Nuvole: Prevalentemente Nuvoloso
Visibilità: 10 km
Nuvole nel Dettaglio: Qualche Nuvola 701 m
Prevalentemente Nuvoloso 1280 m
2020/08/03 18:00 YMML 031800Z 26012KT 9999 FEW023 BKN042 05/03 Q1012
YBBN - Brisbane, Australia
Ultimo Aggiornamento: Lunedì 03 Agosto 2020 20:00 CEST
Sereno
Sereno
 Wind from calm
Vento: Calma
Temperatura: 13°C
Punto di Rugiada: 11°C
Umidità: 88%
Barometro: 1017 hPa
Condizioni: Sereno
Visibilità: superiore a 10 km
2020/08/03 18:00 YBBN 031800Z 00000KT CAVOK 13/11 Q1017
 
YPPH - Perth, Australia
Ultimo Aggiornamento: Lunedì 03 Agosto 2020 20:00 CEST
Parzialmente Nuvoloso
Parzialmente Nuvoloso
 Wind from Sud
Vento: Sud 13 km/h
Temperatura: 8°C
Wind Chill: 6°C
Punto di Rugiada: 7°C
Umidità: 93%
Barometro: 1008 hPa
Nuvole: Parzialmente Nuvoloso
Visibilità: 10 km
Nuvole nel Dettaglio: Parzialmente Nuvoloso 914 m
2020/08/03 18:00 YPPH 031800Z AUTO 19007KT 9999 // SCT030 08/07 Q1008
YBAS - Alice Springs, Australia
Ultimo Aggiornamento: Lunedì 03 Agosto 2020 20:00 CEST
Sereno
Sereno
 Wind from Nord-Nord-Ovest
Vento: Nord-Nord-Ovest 9 km/h
Temperatura: 9°C
Wind Chill: 7°C
Punto di Rugiada: -8°C
Umidità: 29%
Barometro: 1014 hPa
Nuvole: Sereno
Visibilità: 10 km
2020/08/03 18:00 YBAS 031800Z AUTO 34005KT 9999 // NCD 09/M08 Q1014
NZAA - Auckland, New Zealand
Ultimo Aggiornamento: Lunedì 03 Agosto 2020 20:00 CEST
Sereno
Sereno
 Wind from Sud-Sud-Est
Vento: Sud-Sud-Est 9 km/h
Temperatura: 8°C
Wind Chill: 6°C
Punto di Rugiada: 8°C
Umidità: 100%
Barometro: 1017 hPa
Nuvole: Sereno
Visibilità: 10 km
2020/08/03 18:00 NZAA 031800Z AUTO 16005KT 9999 NCD 08/08 Q1017 TEMPO FM1700 2000 BR
 
NTAA - Tahiti, French Polynesia
Ultimo Aggiornamento: Lunedì 03 Agosto 2020 20:00 CEST
Qualche Nuvola
Qualche Nuvola
 Wind from Est
Vento: Est 13 km/h
Temperatura: 26°C
Punto di Rugiada: 20°C
Umidità: 70%
Barometro: 1015 hPa
Nuvole: Qualche Nuvola
Visibilità: 10 km
Nuvole nel Dettaglio: Qualche Nuvola 610 m
2020/08/03 18:00 NTAA 031800Z 08007KT 9999 FEW020 26/20 Q1015 NOSIG
NFFN - Nadi, Fiji
Ultimo Aggiornamento: Lunedì 03 Agosto 2020 20:00 CEST
Qualche Nuvola
Qualche Nuvola
 Wind from varies
Vento: variabile 4 km/h
Temperatura: 22°C
Punto di Rugiada: 21°C
Umidità: 94%
Barometro: 1011 hPa
Nuvole: Qualche Nuvola
Visibilità: 10 km
Nuvole nel Dettaglio: Qualche Nuvola 853 m
2020/08/03 18:00 NFFN 031800Z VRB02KT 9999 FEW028 22/21 Q1011 NOSIG
PKMJ - Majuro, Marshall Islands
Ultimo Aggiornamento: Lunedì 03 Agosto 2020 12:51 CEST
Dati non Recenti
Nuvoloso
Nuvoloso
 Wind from Nord-Est
Vento: Nord-Est 15 km/h
Temperatura: 28°C
Heat Index: 32°C
Punto di Rugiada: 25°C
Umidità: 84%
Barometro: 1009.8 hPa
Nuvole: Nuvoloso
Visibilità: 24 km
Nuvole nel Dettaglio: Qualche Nuvola 457 m
Parzialmente Nuvoloso 1524 m
Prevalentemente Nuvoloso 3658 m
Nuvoloso 9144 m
2020/08/03 10:51 PKMJ 031051Z 04008KT 15SM FEW015 SCT050 BKN120 OVC300 28/25 A2982 RMK LAST
 
PGUM - Hagatna, Guam, United States
Ultimo Aggiornamento: Lunedì 03 Agosto 2020 19:54 CEST
Parzialmente Nuvoloso
Parzialmente Nuvoloso
 Wind from Est
Vento: Est 17 km/h
Temperatura: 28°C
Heat Index: 32°C
Punto di Rugiada: 24°C
Umidità: 79%
Barometro: 1009.8 hPa
Nuvole: Parzialmente Nuvoloso
Visibilità: 16 km
Nuvole nel Dettaglio: Qualche Nuvola 640 m
Parzialmente Nuvoloso 792 m
Parzialmente Nuvoloso 1097 m
2020/08/03 17:54 PGUM 031754Z 09009KT 10SM FEW021 SCT026 SCT036 28/24 A2982 RMK AO2 SLP089 60021 T02780244 10278 20256 56006 $
AYPY - Port Moresby, Papua New Guinea
Ultimo Aggiornamento: Lunedì 03 Agosto 2020 19:00 CEST
Dati non Recenti
Nuvoloso
Nuvoloso
 Wind from Sud-Est
Vento: Sud-Est 28 km/h
Temperatura: 25°C
Punto di Rugiada: 24°C
Umidità: 94%
Barometro: 1009 hPa
Nuvole: Nuvoloso
Visibilità: 10 km
Nuvole nel Dettaglio: Parzialmente Nuvoloso 335 m
Prevalentemente Nuvoloso 914 m
Nuvoloso 1829 m
2020/08/03 17:00 AYPY 031700Z 14015KT 9999 SCT011 BKN030 OVC060 25/24 Q1009=
AGGH - Honiara, Guadalcanal, Solomon Islands
Ultimo Aggiornamento: Lunedì 03 Agosto 2020 20:00 CEST
Qualche Nuvola
Qualche Nuvola
 Wind from Sud-Sud-Est
Vento: Sud-Sud-Est 6 km/h
Temperatura: 23°C
Punto di Rugiada: 23°C
Umidità: 100%
Barometro: 1008 hPa
Nuvole: Qualche Nuvola
Visibilità: 10 km
Nuvole nel Dettaglio: Qualche Nuvola 427 m
2020/08/03 18:00 AGGH 031800Z 16003KT 9999 FEW014 23/23 Q1008